sensor_id;sensor_type;location;lat;lon;timestamp;P1;durP1;ratioP1;P2;durP2;ratioP2
35877;SDS011;21982;49.804;24.072;2023-04-06T00:01:30;14.82;;;7.38;;
35877;SDS011;21982;49.804;24.072;2023-04-06T00:03:55;11.40;;;7.13;;
35877;SDS011;21982;49.804;24.072;2023-04-06T00:06:20;13.07;;;6.95;;
35877;SDS011;21982;49.804;24.072;2023-04-06T00:08:46;13.95;;;6.55;;
35877;SDS011;21982;49.804;24.072;2023-04-06T00:11:12;14.33;;;7.53;;
35877;SDS011;21982;49.804;24.072;2023-04-06T00:13:37;16.83;;;9.33;;
35877;SDS011;21982;49.804;24.072;2023-04-06T00:16:02;16.03;;;9.33;;
35877;SDS011;21982;49.804;24.072;2023-04-06T00:18:30;13.23;;;7.88;;
35877;SDS011;21982;49.804;24.072;2023-04-06T00:20:56;13.30;;;6.25;;
35877;SDS011;21982;49.804;24.072;2023-04-06T00:23:21;11.00;;;7.18;;
35877;SDS011;21982;49.804;24.072;2023-04-06T00:25:47;11.50;;;5.88;;
35877;SDS011;21982;49.804;24.072;2023-04-06T00:28:12;11.87;;;6.80;;
35877;SDS011;21982;49.804;24.072;2023-04-06T00:30:37;12.73;;;7.20;;
35877;SDS011;21982;49.804;24.072;2023-04-06T00:33:03;13.90;;;7.32;;
35877;SDS011;21982;49.804;24.072;2023-04-06T00:35:28;13.17;;;6.53;;
35877;SDS011;21982;49.804;24.072;2023-04-06T00:37:53;11.32;;;6.68;;
35877;SDS011;21982;49.804;24.072;2023-04-06T00:40:19;11.85;;;7.10;;
35877;SDS011;21982;49.804;24.072;2023-04-06T00:42:44;12.13;;;7.78;;
35877;SDS011;21982;49.804;24.072;2023-04-06T00:45:10;16.60;;;7.63;;
35877;SDS011;21982;49.804;24.072;2023-04-06T00:47:35;13.70;;;7.18;;
35877;SDS011;21982;49.804;24.072;2023-04-06T00:50:01;11.82;;;6.25;;
35877;SDS011;21982;49.804;24.072;2023-04-06T00:52:26;11.03;;;6.80;;
35877;SDS011;21982;49.804;24.072;2023-04-06T00:54:52;10.87;;;6.57;;
35877;SDS011;21982;49.804;24.072;2023-04-06T00:57:18;10.82;;;6.25;;
35877;SDS011;21982;49.804;24.072;2023-04-06T00:59:44;13.90;;;7.60;;
35877;SDS011;21982;49.804;24.072;2023-04-06T01:02:10;12.52;;;6.55;;
35877;SDS011;21982;49.804;24.072;2023-04-06T01:04:35;12.38;;;6.82;;
35877;SDS011;21982;49.804;24.072;2023-04-06T01:07:01;13.07;;;6.57;;
35877;SDS011;21982;49.804;24.072;2023-04-06T01:09:27;12.57;;;7.32;;
35877;SDS011;21982;49.804;24.072;2023-04-06T01:11:54;13.17;;;6.97;;
35877;SDS011;21982;49.804;24.072;2023-04-06T01:14:21;14.90;;;6.80;;
35877;SDS011;21982;49.804;24.072;2023-04-06T01:16:46;10.67;;;6.23;;
35877;SDS011;21982;49.804;24.072;2023-04-06T01:19:12;11.97;;;6.23;;
35877;SDS011;21982;49.804;24.072;2023-04-06T01:21:38;13.43;;;7.17;;
35877;SDS011;21982;49.804;24.072;2023-04-06T01:24:04;13.90;;;6.87;;
35877;SDS011;21982;49.804;24.072;2023-04-06T01:26:31;13.03;;;6.97;;
35877;SDS011;21982;49.804;24.072;2023-04-06T01:28:57;11.03;;;5.60;;
35877;SDS011;21982;49.804;24.072;2023-04-06T01:31:22;12.07;;;5.95;;
35877;SDS011;21982;49.804;24.072;2023-04-06T01:33:48;11.07;;;6.60;;
35877;SDS011;21982;49.804;24.072;2023-04-06T01:36:14;12.07;;;6.85;;
35877;SDS011;21982;49.804;24.072;2023-04-06T01:38:40;13.27;;;6.60;;
35877;SDS011;21982;49.804;24.072;2023-04-06T01:41:06;14.70;;;7.10;;
35877;SDS011;21982;49.804;24.072;2023-04-06T01:43:32;13.35;;;7.93;;
35877;SDS011;21982;49.804;24.072;2023-04-06T01:45:58;14.27;;;6.50;;
35877;SDS011;21982;49.804;24.072;2023-04-06T01:48:23;12.65;;;6.68;;
35877;SDS011;21982;49.804;24.072;2023-04-06T01:50:48;11.13;;;6.10;;
35877;SDS011;21982;49.804;24.072;2023-04-06T02:03:57;12.47;;;6.60;;
35877;SDS011;21982;49.804;24.072;2023-04-06T02:06:22;11.30;;;6.43;;
35877;SDS011;21982;49.804;24.072;2023-04-06T02:08:48;11.15;;;5.85;;
35877;SDS011;21982;49.804;24.072;2023-04-06T02:11:13;11.80;;;5.63;;
35877;SDS011;21982;49.804;24.072;2023-04-06T02:13:39;11.07;;;6.27;;
35877;SDS011;21982;49.804;24.072;2023-04-06T02:16:05;11.52;;;5.80;;
35877;SDS011;21982;49.804;24.072;2023-04-06T02:18:31;10.20;;;5.30;;
35877;SDS011;21982;49.804;24.072;2023-04-06T02:20:56;10.18;;;5.90;;
35877;SDS011;21982;49.804;24.072;2023-04-06T02:23:22;11.83;;;6.50;;
35877;SDS011;21982;49.804;24.072;2023-04-06T02:25:47;11.77;;;6.43;;
35877;SDS011;21982;49.804;24.072;2023-04-06T02:28:12;12.67;;;7.07;;
35877;SDS011;21982;49.804;24.072;2023-04-06T02:30:38;11.73;;;6.43;;
35877;SDS011;21982;49.804;24.072;2023-04-06T02:33:03;11.03;;;6.43;;
35877;SDS011;21982;49.804;24.072;2023-04-06T02:35:29;10.00;;;5.77;;
35877;SDS011;21982;49.804;24.072;2023-04-06T02:37:55;10.25;;;5.85;;
35877;SDS011;21982;49.804;24.072;2023-04-06T02:40:21;12.33;;;6.53;;
35877;SDS011;21982;49.804;24.072;2023-04-06T02:42:47;10.52;;;6.50;;
35877;SDS011;21982;49.804;24.072;2023-04-06T02:45:13;12.55;;;5.50;;
35877;SDS011;21982;49.804;24.072;2023-04-06T02:47:39;10.57;;;5.80;;
35877;SDS011;21982;49.804;24.072;2023-04-06T02:50:05;11.88;;;5.75;;
35877;SDS011;21982;49.804;24.072;2023-04-06T02:52:31;11.80;;;6.43;;
35877;SDS011;21982;49.804;24.072;2023-04-06T02:54:57;12.83;;;7.63;;
35877;SDS011;21982;49.804;24.072;2023-04-06T02:57:22;10.00;;;5.97;;
35877;SDS011;21982;49.804;24.072;2023-04-06T02:59:48;11.13;;;5.77;;
35877;SDS011;21982;49.804;24.072;2023-04-06T03:02:13;12.85;;;6.63;;
35877;SDS011;21982;49.804;24.072;2023-04-06T03:04:38;10.93;;;5.95;;
35877;SDS011;21982;49.804;24.072;2023-04-06T03:07:04;10.60;;;6.93;;
35877;SDS011;21982;49.804;24.072;2023-04-06T03:09:29;9.90;;;5.97;;
35877;SDS011;21982;49.804;24.072;2023-04-06T03:11:55;10.40;;;6.47;;
35877;SDS011;21982;49.804;24.072;2023-04-06T03:14:20;13.00;;;7.47;;
35877;SDS011;21982;49.804;24.072;2023-04-06T03:16:50;12.25;;;7.00;;
35877;SDS011;21982;49.804;24.072;2023-04-06T03:19:15;12.43;;;5.68;;
35877;SDS011;21982;49.804;24.072;2023-04-06T03:21:41;9.23;;;5.33;;
35877;SDS011;21982;49.804;24.072;2023-04-06T03:24:07;9.67;;;6.07;;
35877;SDS011;21982;49.804;24.072;2023-04-06T03:26:32;12.73;;;6.40;;
35877;SDS011;21982;49.804;24.072;2023-04-06T03:28:58;8.27;;;5.47;;
35877;SDS011;21982;49.804;24.072;2023-04-06T03:31:23;11.30;;;5.53;;
35877;SDS011;21982;49.804;24.072;2023-04-06T03:33:49;8.88;;;4.63;;
35877;SDS011;21982;49.804;24.072;2023-04-06T03:36:14;10.45;;;5.25;;
35877;SDS011;21982;49.804;24.072;2023-04-06T03:38:40;11.00;;;5.53;;
35877;SDS011;21982;49.804;24.072;2023-04-06T03:41:05;10.05;;;5.10;;
35877;SDS011;21982;49.804;24.072;2023-04-06T03:43:31;9.68;;;5.53;;
35877;SDS011;21982;49.804;24.072;2023-04-06T03:45:56;10.40;;;4.50;;
35877;SDS011;21982;49.804;24.072;2023-04-06T03:48:21;13.75;;;5.50;;
35877;SDS011;21982;49.804;24.072;2023-04-06T03:50:47;10.00;;;5.03;;
35877;SDS011;21982;49.804;24.072;2023-04-06T03:53:12;8.48;;;6.13;;
35877;SDS011;21982;49.804;24.072;2023-04-06T03:55:37;9.27;;;5.00;;
35877;SDS011;21982;49.804;24.072;2023-04-06T03:58:03;10.83;;;5.03;;
35877;SDS011;21982;49.804;24.072;2023-04-06T04:00:28;8.70;;;5.55;;
35877;SDS011;21982;49.804;24.072;2023-04-06T04:02:54;11.83;;;5.20;;
35877;SDS011;21982;49.804;24.072;2023-04-06T04:05:19;11.55;;;5.95;;
35877;SDS011;21982;49.804;24.072;2023-04-06T04:07:49;10.30;;;5.03;;
35877;SDS011;21982;49.804;24.072;2023-04-06T04:10:15;11.60;;;5.57;;
35877;SDS011;21982;49.804;24.072;2023-04-06T04:12:40;11.27;;;6.45;;
35877;SDS011;21982;49.804;24.072;2023-04-06T04:15:06;8.95;;;5.88;;
35877;SDS011;21982;49.804;24.072;2023-04-06T04:17:31;9.73;;;5.70;;
35877;SDS011;21982;49.804;24.072;2023-04-06T04:19:57;10.18;;;4.63;;
35877;SDS011;21982;49.804;24.072;2023-04-06T04:22:22;9.00;;;4.93;;
35877;SDS011;21982;49.804;24.072;2023-04-06T04:24:48;7.73;;;4.47;;
35877;SDS011;21982;49.804;24.072;2023-04-06T04:27:13;9.50;;;4.27;;
35877;SDS011;21982;49.804;24.072;2023-04-06T04:29:38;10.15;;;5.32;;
35877;SDS011;21982;49.804;24.072;2023-04-06T04:32:04;6.57;;;4.28;;
35877;SDS011;21982;49.804;24.072;2023-04-06T04:34:29;9.13;;;4.80;;
35877;SDS011;21982;49.804;24.072;2023-04-06T04:36:56;7.90;;;4.47;;
35877;SDS011;21982;49.804;24.072;2023-04-06T04:39:21;8.60;;;4.23;;
35877;SDS011;21982;49.804;24.072;2023-04-06T04:41:46;7.55;;;4.07;;
35877;SDS011;21982;49.804;24.072;2023-04-06T04:44:12;8.30;;;3.97;;
35877;SDS011;21982;49.804;24.072;2023-04-06T04:46:37;7.45;;;3.78;;
35877;SDS011;21982;49.804;24.072;2023-04-06T04:49:02;6.60;;;3.65;;
35877;SDS011;21982;49.804;24.072;2023-04-06T04:51:28;7.30;;;3.87;;
35877;SDS011;21982;49.804;24.072;2023-04-06T04:53:53;7.57;;;3.92;;
35877;SDS011;21982;49.804;24.072;2023-04-06T04:56:19;6.90;;;3.67;;
35877;SDS011;21982;49.804;24.072;2023-04-06T04:58:44;7.22;;;3.38;;
35877;SDS011;21982;49.804;24.072;2023-04-06T05:09:50;6.95;;;3.42;;
35877;SDS011;21982;49.804;24.072;2023-04-06T05:12:16;5.80;;;2.47;;
35877;SDS011;21982;49.804;24.072;2023-04-06T05:14:41;4.72;;;2.70;;
35877;SDS011;21982;49.804;24.072;2023-04-06T05:17:07;7.35;;;3.33;;
35877;SDS011;21982;49.804;24.072;2023-04-06T05:19:33;5.20;;;2.78;;
35877;SDS011;21982;49.804;24.072;2023-04-06T05:22:01;6.13;;;3.20;;
35877;SDS011;21982;49.804;24.072;2023-04-06T05:24:27;6.10;;;3.35;;
35877;SDS011;21982;49.804;24.072;2023-04-06T05:26:52;6.85;;;2.95;;
35877;SDS011;21982;49.804;24.072;2023-04-06T05:29:18;6.47;;;3.27;;
35877;SDS011;21982;49.804;24.072;2023-04-06T05:31:43;7.35;;;3.95;;
35877;SDS011;21982;49.804;24.072;2023-04-06T05:34:09;7.77;;;3.93;;
35877;SDS011;21982;49.804;24.072;2023-04-06T05:36:35;10.68;;;4.05;;
35877;SDS011;21982;49.804;24.072;2023-04-06T05:39:00;8.98;;;3.97;;
35877;SDS011;21982;49.804;24.072;2023-04-06T05:41:26;7.07;;;4.40;;
35877;SDS011;21982;49.804;24.072;2023-04-06T05:43:51;8.70;;;4.17;;
35877;SDS011;21982;49.804;24.072;2023-04-06T05:46:17;8.35;;;4.30;;
35877;SDS011;21982;49.804;24.072;2023-04-06T05:48:43;7.13;;;3.77;;
35877;SDS011;21982;49.804;24.072;2023-04-06T05:51:09;6.70;;;3.57;;
35877;SDS011;21982;49.804;24.072;2023-04-06T05:53:34;6.57;;;3.65;;
35877;SDS011;21982;49.804;24.072;2023-04-06T05:56:03;8.20;;;3.72;;
35877;SDS011;21982;49.804;24.072;2023-04-06T05:58:29;6.95;;;3.42;;
35877;SDS011;21982;49.804;24.072;2023-04-06T06:00:58;8.60;;;4.90;;
35877;SDS011;21982;49.804;24.072;2023-04-06T06:03:24;6.28;;;3.50;;
35877;SDS011;21982;49.804;24.072;2023-04-06T06:05:49;10.02;;;4.70;;
35877;SDS011;21982;49.804;24.072;2023-04-06T06:08:15;9.27;;;4.75;;
35877;SDS011;21982;49.804;24.072;2023-04-06T06:10:40;4.03;;;2.33;;
35877;SDS011;21982;49.804;24.072;2023-04-06T06:13:05;5.22;;;2.75;;
35877;SDS011;21982;49.804;24.072;2023-04-06T06:15:31;6.50;;;2.63;;
35877;SDS011;21982;49.804;24.072;2023-04-06T06:17:56;3.70;;;2.35;;
35877;SDS011;21982;49.804;24.072;2023-04-06T06:20:22;4.57;;;2.35;;
35877;SDS011;21982;49.804;24.072;2023-04-06T06:22:47;6.00;;;3.50;;
35877;SDS011;21982;49.804;24.072;2023-04-06T06:25:12;4.55;;;2.58;;
35877;SDS011;21982;49.804;24.072;2023-04-06T06:27:40;6.60;;;3.58;;
35877;SDS011;21982;49.804;24.072;2023-04-06T06:30:06;8.00;;;3.00;;
35877;SDS011;21982;49.804;24.072;2023-04-06T06:32:32;8.65;;;2.83;;
35877;SDS011;21982;49.804;24.072;2023-04-06T06:34:58;9.45;;;3.80;;
35877;SDS011;21982;49.804;24.072;2023-04-06T06:37:23;5.68;;;3.05;;
35877;SDS011;21982;49.804;24.072;2023-04-06T06:39:48;8.23;;;3.58;;
35877;SDS011;21982;49.804;24.072;2023-04-06T06:42:14;8.02;;;3.53;;
35877;SDS011;21982;49.804;24.072;2023-04-06T06:44:39;7.22;;;3.80;;
35877;SDS011;21982;49.804;24.072;2023-04-06T06:47:05;8.57;;;3.97;;
35877;SDS011;21982;49.804;24.072;2023-04-06T06:49:30;6.97;;;3.70;;
35877;SDS011;21982;49.804;24.072;2023-04-06T06:51:56;6.32;;;2.67;;
35877;SDS011;21982;49.804;24.072;2023-04-06T06:54:21;8.82;;;3.90;;
35877;SDS011;21982;49.804;24.072;2023-04-06T06:56:46;6.35;;;3.20;;
35877;SDS011;21982;49.804;24.072;2023-04-06T06:59:12;5.45;;;2.53;;
35877;SDS011;21982;49.804;24.072;2023-04-06T07:01:37;10.63;;;3.00;;
35877;SDS011;21982;49.804;24.072;2023-04-06T07:04:02;5.17;;;2.37;;
35877;SDS011;21982;49.804;24.072;2023-04-06T07:06:28;5.57;;;2.70;;
35877;SDS011;21982;49.804;24.072;2023-04-06T07:08:53;10.05;;;4.05;;
35877;SDS011;21982;49.804;24.072;2023-04-06T07:11:20;6.43;;;3.20;;
35877;SDS011;21982;49.804;24.072;2023-04-06T07:13:45;4.53;;;2.50;;
35877;SDS011;21982;49.804;24.072;2023-04-06T07:16:11;4.63;;;2.65;;
35877;SDS011;21982;49.804;24.072;2023-04-06T07:18:36;6.60;;;3.28;;
35877;SDS011;21982;49.804;24.072;2023-04-06T07:21:01;8.30;;;3.95;;
35877;SDS011;21982;49.804;24.072;2023-04-06T07:23:27;6.22;;;3.22;;
35877;SDS011;21982;49.804;24.072;2023-04-06T07:25:52;6.28;;;3.35;;
35877;SDS011;21982;49.804;24.072;2023-04-06T07:28:19;8.00;;;4.13;;
35877;SDS011;21982;49.804;24.072;2023-04-06T07:30:45;7.07;;;3.40;;
35877;SDS011;21982;49.804;24.072;2023-04-06T07:33:10;10.00;;;4.32;;
35877;SDS011;21982;49.804;24.072;2023-04-06T07:35:36;8.15;;;3.47;;
35877;SDS011;21982;49.804;24.072;2023-04-06T07:38:02;7.55;;;3.40;;
35877;SDS011;21982;49.804;24.072;2023-04-06T07:40:29;7.22;;;3.15;;
35877;SDS011;21982;49.804;24.072;2023-04-06T07:42:56;6.88;;;3.60;;
35877;SDS011;21982;49.804;24.072;2023-04-06T07:45:24;7.03;;;3.67;;
35877;SDS011;21982;49.804;24.072;2023-04-06T07:47:49;9.38;;;3.72;;
35877;SDS011;21982;49.804;24.072;2023-04-06T07:50:15;6.15;;;3.25;;
35877;SDS011;21982;49.804;24.072;2023-04-06T07:52:41;9.52;;;4.65;;
35877;SDS011;21982;49.804;24.072;2023-04-06T07:55:06;7.30;;;3.58;;
35877;SDS011;21982;49.804;24.072;2023-04-06T07:57:32;7.25;;;3.83;;
35877;SDS011;21982;49.804;24.072;2023-04-06T07:59:57;9.02;;;4.28;;
35877;SDS011;21982;49.804;24.072;2023-04-06T08:02:23;7.90;;;3.88;;
35877;SDS011;21982;49.804;24.072;2023-04-06T08:04:48;11.45;;;4.38;;
35877;SDS011;21982;49.804;24.072;2023-04-06T08:07:13;7.60;;;4.13;;
35877;SDS011;21982;49.804;24.072;2023-04-06T08:09:39;8.65;;;4.78;;
35877;SDS011;21982;49.804;24.072;2023-04-06T08:12:06;7.45;;;3.40;;
35877;SDS011;21982;49.804;24.072;2023-04-06T08:14:31;8.48;;;3.75;;
35877;SDS011;21982;49.804;24.072;2023-04-06T08:16:57;8.55;;;4.68;;
35877;SDS011;21982;49.804;24.072;2023-04-06T08:19:22;7.85;;;4.55;;
35877;SDS011;21982;49.804;24.072;2023-04-06T08:21:48;9.13;;;4.05;;
35877;SDS011;21982;49.804;24.072;2023-04-06T08:24:14;5.93;;;3.13;;
35877;SDS011;21982;49.804;24.072;2023-04-06T08:26:40;8.30;;;4.00;;
35877;SDS011;21982;49.804;24.072;2023-04-06T08:29:05;7.50;;;3.42;;
35877;SDS011;21982;49.804;24.072;2023-04-06T08:31:32;7.03;;;3.70;;
35877;SDS011;21982;49.804;24.072;2023-04-06T08:34:02;6.85;;;3.38;;
35877;SDS011;21982;49.804;24.072;2023-04-06T08:36:29;11.70;;;4.53;;
35877;SDS011;21982;49.804;24.072;2023-04-06T08:38:54;9.80;;;5.32;;
35877;SDS011;21982;49.804;24.072;2023-04-06T08:41:20;5.13;;;2.60;;
35877;SDS011;21982;49.804;24.072;2023-04-06T08:46:24;10.40;;;4.82;;
35877;SDS011;21982;49.804;24.072;2023-04-06T08:48:54;9.38;;;5.03;;
35877;SDS011;21982;49.804;24.072;2023-04-06T08:51:22;7.15;;;4.70;;
35877;SDS011;21982;49.804;24.072;2023-04-06T08:53:48;8.45;;;3.25;;
35877;SDS011;21982;49.804;24.072;2023-04-06T08:56:15;5.75;;;3.30;;
35877;SDS011;21982;49.804;24.072;2023-04-06T08:58:41;8.07;;;3.03;;
35877;SDS011;21982;49.804;24.072;2023-04-06T09:01:07;6.55;;;2.90;;
35877;SDS011;21982;49.804;24.072;2023-04-06T09:03:39;11.65;;;6.80;;
35877;SDS011;21982;49.804;24.072;2023-04-06T09:06:05;7.97;;;4.28;;
35877;SDS011;21982;49.804;24.072;2023-04-06T09:08:35;8.13;;;4.32;;
35877;SDS011;21982;49.804;24.072;2023-04-06T09:11:01;5.75;;;3.05;;
35877;SDS011;21982;49.804;24.072;2023-04-06T09:13:29;8.77;;;4.22;;
35877;SDS011;21982;49.804;24.072;2023-04-06T09:16:13;6.22;;;3.63;;
35877;SDS011;21982;49.804;24.072;2023-04-06T09:18:44;6.78;;;4.03;;
35877;SDS011;21982;49.804;24.072;2023-04-06T09:21:10;3.95;;;2.88;;
35877;SDS011;21982;49.804;24.072;2023-04-06T09:23:38;4.78;;;2.60;;
35877;SDS011;21982;49.804;24.072;2023-04-06T09:28:50;5.70;;;3.00;;
35877;SDS011;21982;49.804;24.072;2023-04-06T09:31:21;7.30;;;3.20;;
35877;SDS011;21982;49.804;24.072;2023-04-06T09:33:48;5.32;;;3.08;;
35877;SDS011;21982;49.804;24.072;2023-04-06T09:36:14;4.32;;;2.50;;
35877;SDS011;21982;49.804;24.072;2023-04-06T09:38:56;7.18;;;2.70;;
35877;SDS011;21982;49.804;24.072;2023-04-06T09:41:30;9.82;;;3.83;;
35877;SDS011;21982;49.804;24.072;2023-04-06T09:44:06;8.50;;;4.03;;
35877;SDS011;21982;49.804;24.072;2023-04-06T09:46:42;6.93;;;3.87;;
35877;SDS011;21982;49.804;24.072;2023-04-06T09:49:09;8.63;;;4.05;;
35877;SDS011;21982;49.804;24.072;2023-04-06T09:51:45;4.85;;;2.53;;
35877;SDS011;21982;49.804;24.072;2023-04-06T09:54:20;6.47;;;4.00;;
35877;SDS011;21982;49.804;24.072;2023-04-06T09:56:56;5.85;;;2.95;;
35877;SDS011;21982;49.804;24.072;2023-04-06T10:02:25;9.60;;;4.80;;
35877;SDS011;21982;49.804;24.072;2023-04-06T10:04:58;8.32;;;3.72;;
35877;SDS011;21982;49.804;24.072;2023-04-06T10:07:30;9.13;;;4.97;;
35877;SDS011;21982;49.804;24.072;2023-04-06T10:09:59;8.50;;;3.63;;
35877;SDS011;21982;49.804;24.072;2023-04-06T10:12:27;9.23;;;4.43;;
35877;SDS011;21982;49.804;24.072;2023-04-06T10:14:52;14.00;;;5.70;;
35877;SDS011;21982;49.804;24.072;2023-04-06T10:17:22;12.43;;;5.32;;
35877;SDS011;21982;49.804;24.072;2023-04-06T10:19:53;16.88;;;8.10;;
35877;SDS011;21982;49.804;24.072;2023-04-06T10:22:36;11.10;;;5.15;;
35877;SDS011;21982;49.804;24.072;2023-04-06T10:25:08;13.65;;;5.22;;
35877;SDS011;21982;49.804;24.072;2023-04-06T10:27:34;14.50;;;5.35;;
35877;SDS011;21982;49.804;24.072;2023-04-06T10:30:03;11.05;;;5.18;;
35877;SDS011;21982;49.804;24.072;2023-04-06T10:32:33;8.75;;;3.95;;
35877;SDS011;21982;49.804;24.072;2023-04-06T10:35:08;8.75;;;4.88;;
35877;SDS011;21982;49.804;24.072;2023-04-06T10:37:49;9.98;;;4.75;;
35877;SDS011;21982;49.804;24.072;2023-04-06T10:40:25;8.02;;;3.92;;
35877;SDS011;21982;49.804;24.072;2023-04-06T10:42:52;10.90;;;6.18;;
35877;SDS011;21982;49.804;24.072;2023-04-06T10:45:18;7.25;;;3.92;;
35877;SDS011;21982;49.804;24.072;2023-04-06T10:47:52;11.27;;;4.78;;
35877;SDS011;21982;49.804;24.072;2023-04-06T10:50:19;6.80;;;3.65;;
35877;SDS011;21982;49.804;24.072;2023-04-06T10:52:59;11.02;;;5.20;;
35877;SDS011;21982;49.804;24.072;2023-04-06T10:55:28;10.70;;;5.43;;
35877;SDS011;21982;49.804;24.072;2023-04-06T10:57:54;11.50;;;5.50;;
35877;SDS011;21982;49.804;24.072;2023-04-06T11:00:20;13.15;;;6.40;;
35877;SDS011;21982;49.804;24.072;2023-04-06T11:02:45;10.23;;;5.25;;
35877;SDS011;21982;49.804;24.072;2023-04-06T11:05:11;9.98;;;5.32;;
35877;SDS011;21982;49.804;24.072;2023-04-06T11:07:38;10.45;;;4.00;;
35877;SDS011;21982;49.804;24.072;2023-04-06T11:10:04;7.35;;;5.15;;
35877;SDS011;21982;49.804;24.072;2023-04-06T11:12:30;10.23;;;5.80;;
35877;SDS011;21982;49.804;24.072;2023-04-06T11:15:02;10.07;;;4.65;;
35877;SDS011;21982;49.804;24.072;2023-04-06T11:17:32;9.75;;;5.32;;
35877;SDS011;21982;49.804;24.072;2023-04-06T11:20:00;11.98;;;4.72;;
35877;SDS011;21982;49.804;24.072;2023-04-06T11:22:26;7.38;;;4.28;;
35877;SDS011;21982;49.804;24.072;2023-04-06T11:24:52;10.55;;;5.45;;
35877;SDS011;21982;49.804;24.072;2023-04-06T11:27:21;9.63;;;4.82;;
35877;SDS011;21982;49.804;24.072;2023-04-06T11:29:46;5.95;;;3.85;;
35877;SDS011;21982;49.804;24.072;2023-04-06T11:32:19;11.77;;;5.35;;
35877;SDS011;21982;49.804;24.072;2023-04-06T11:34:46;9.75;;;5.03;;
35877;SDS011;21982;49.804;24.072;2023-04-06T11:37:12;9.90;;;5.68;;
35877;SDS011;21982;49.804;24.072;2023-04-06T11:39:38;11.52;;;5.45;;
35877;SDS011;21982;49.804;24.072;2023-04-06T11:42:05;16.42;;;7.60;;
35877;SDS011;21982;49.804;24.072;2023-04-06T11:44:32;10.02;;;5.82;;
35877;SDS011;21982;49.804;24.072;2023-04-06T11:46:59;8.63;;;5.47;;
35877;SDS011;21982;49.804;24.072;2023-04-06T11:49:29;7.85;;;4.20;;
35877;SDS011;21982;49.804;24.072;2023-04-06T11:51:55;11.00;;;6.50;;
35877;SDS011;21982;49.804;24.072;2023-04-06T11:57:03;12.27;;;6.97;;
35877;SDS011;21982;49.804;24.072;2023-04-06T11:59:29;9.50;;;5.00;;
35877;SDS011;21982;49.804;24.072;2023-04-06T12:01:57;7.70;;;4.07;;
35877;SDS011;21982;49.804;24.072;2023-04-06T12:04:23;10.02;;;4.93;;
35877;SDS011;21982;49.804;24.072;2023-04-06T12:06:48;8.70;;;3.50;;
35877;SDS011;21982;49.804;24.072;2023-04-06T12:09:14;7.93;;;4.63;;
35877;SDS011;21982;49.804;24.072;2023-04-06T12:11:40;8.52;;;4.50;;
35877;SDS011;21982;49.804;24.072;2023-04-06T12:14:06;11.40;;;6.70;;
35877;SDS011;21982;49.804;24.072;2023-04-06T12:16:32;19.58;;;8.98;;
35877;SDS011;21982;49.804;24.072;2023-04-06T12:18:58;11.88;;;5.93;;
35877;SDS011;21982;49.804;24.072;2023-04-06T12:21:25;16.33;;;8.55;;
35877;SDS011;21982;49.804;24.072;2023-04-06T12:23:51;14.38;;;6.88;;
35877;SDS011;21982;49.804;24.072;2023-04-06T12:26:17;29.35;;;12.85;;
35877;SDS011;21982;49.804;24.072;2023-04-06T12:28:42;12.77;;;7.40;;
35877;SDS011;21982;49.804;24.072;2023-04-06T12:31:14;18.27;;;10.20;;
35877;SDS011;21982;49.804;24.072;2023-04-06T12:33:40;12.45;;;6.53;;
35877;SDS011;21982;49.804;24.072;2023-04-06T12:36:10;10.20;;;5.40;;
35877;SDS011;21982;49.804;24.072;2023-04-06T12:38:39;14.73;;;7.40;;
35877;SDS011;21982;49.804;24.072;2023-04-06T12:41:06;12.07;;;7.25;;
35877;SDS011;21982;49.804;24.072;2023-04-06T12:43:31;11.65;;;6.07;;
35877;SDS011;21982;49.804;24.072;2023-04-06T12:46:00;10.63;;;6.38;;
35877;SDS011;21982;49.804;24.072;2023-04-06T12:48:26;13.07;;;5.85;;
35877;SDS011;21982;49.804;24.072;2023-04-06T12:50:59;10.57;;;4.53;;
35877;SDS011;21982;49.804;24.072;2023-04-06T12:53:25;9.32;;;5.35;;
35877;SDS011;21982;49.804;24.072;2023-04-06T12:55:51;7.40;;;4.15;;
35877;SDS011;21982;49.804;24.072;2023-04-06T12:58:18;9.57;;;5.63;;
35877;SDS011;21982;49.804;24.072;2023-04-06T13:00:44;11.68;;;6.28;;
35877;SDS011;21982;49.804;24.072;2023-04-06T13:03:10;8.98;;;5.05;;
35877;SDS011;21982;49.804;24.072;2023-04-06T13:05:35;9.70;;;4.65;;
35877;SDS011;21982;49.804;24.072;2023-04-06T13:08:11;7.22;;;3.95;;
35877;SDS011;21982;49.804;24.072;2023-04-06T13:10:37;11.48;;;5.05;;
35877;SDS011;21982;49.804;24.072;2023-04-06T13:13:03;12.10;;;5.78;;
35877;SDS011;21982;49.804;24.072;2023-04-06T13:15:28;13.45;;;8.13;;
35877;SDS011;21982;49.804;24.072;2023-04-06T13:17:54;9.98;;;6.25;;
35877;SDS011;21982;49.804;24.072;2023-04-06T13:20:20;9.27;;;4.35;;
35877;SDS011;21982;49.804;24.072;2023-04-06T13:22:49;9.65;;;6.35;;
35877;SDS011;21982;49.804;24.072;2023-04-06T13:25:15;9.25;;;5.70;;
35877;SDS011;21982;49.804;24.072;2023-04-06T13:27:40;9.13;;;5.15;;
35877;SDS011;21982;49.804;24.072;2023-04-06T13:30:06;11.70;;;6.10;;
35877;SDS011;21982;49.804;24.072;2023-04-06T13:32:32;12.73;;;7.22;;
35877;SDS011;21982;49.804;24.072;2023-04-06T13:34:58;10.75;;;4.90;;
35877;SDS011;21982;49.804;24.072;2023-04-06T13:37:23;11.38;;;6.18;;
35877;SDS011;21982;49.804;24.072;2023-04-06T13:39:48;8.80;;;4.80;;
35877;SDS011;21982;49.804;24.072;2023-04-06T13:42:14;6.28;;;3.63;;
35877;SDS011;21982;49.804;24.072;2023-04-06T13:44:40;6.95;;;3.25;;
35877;SDS011;21982;49.804;24.072;2023-04-06T13:47:05;8.05;;;4.38;;
35877;SDS011;21982;49.804;24.072;2023-04-06T13:49:30;52.65;;;18.73;;
35877;SDS011;21982;49.804;24.072;2023-04-06T13:51:56;23.17;;;12.88;;
35877;SDS011;21982;49.804;24.072;2023-04-06T13:54:21;13.30;;;8.30;;
35877;SDS011;21982;49.804;24.072;2023-04-06T13:56:47;16.45;;;8.88;;
35877;SDS011;21982;49.804;24.072;2023-04-06T13:59:13;17.45;;;8.60;;
35877;SDS011;21982;49.804;24.072;2023-04-06T14:01:39;15.15;;;9.25;;
35877;SDS011;21982;49.804;24.072;2023-04-06T14:04:04;13.38;;;8.07;;
35877;SDS011;21982;49.804;24.072;2023-04-06T14:06:30;11.43;;;6.15;;
35877;SDS011;21982;49.804;24.072;2023-04-06T14:08:56;8.23;;;4.50;;
35877;SDS011;21982;49.804;24.072;2023-04-06T14:11:22;11.15;;;5.15;;
35877;SDS011;21982;49.804;24.072;2023-04-06T14:13:47;7.15;;;3.83;;
35877;SDS011;21982;49.804;24.072;2023-04-06T14:16:13;9.70;;;4.22;;
35877;SDS011;21982;49.804;24.072;2023-04-06T14:18:39;8.60;;;4.22;;
35877;SDS011;21982;49.804;24.072;2023-04-06T14:21:04;7.53;;;3.90;;
35877;SDS011;21982;49.804;24.072;2023-04-06T14:23:30;9.55;;;5.13;;
35877;SDS011;21982;49.804;24.072;2023-04-06T14:26:07;8.05;;;4.47;;
35877;SDS011;21982;49.804;24.072;2023-04-06T14:28:33;8.23;;;4.30;;
35877;SDS011;21982;49.804;24.072;2023-04-06T14:31:00;9.60;;;5.35;;
35877;SDS011;21982;49.804;24.072;2023-04-06T14:33:28;7.35;;;4.18;;
35877;SDS011;21982;49.804;24.072;2023-04-06T14:35:55;9.10;;;4.80;;
35877;SDS011;21982;49.804;24.072;2023-04-06T14:38:21;8.60;;;5.13;;
35877;SDS011;21982;49.804;24.072;2023-04-06T14:40:47;8.77;;;4.35;;
35877;SDS011;21982;49.804;24.072;2023-04-06T14:43:12;6.47;;;3.60;;
35877;SDS011;21982;49.804;24.072;2023-04-06T14:45:37;8.45;;;5.03;;
35877;SDS011;21982;49.804;24.072;2023-04-06T14:48:04;9.32;;;4.60;;
35877;SDS011;21982;49.804;24.072;2023-04-06T14:50:31;8.27;;;4.80;;
35877;SDS011;21982;49.804;24.072;2023-04-06T14:53:00;8.82;;;4.70;;
35877;SDS011;21982;49.804;24.072;2023-04-06T14:55:26;8.85;;;5.30;;